Sand Spring Valley, Nevada Weather observations

Data are for 10 minute period ending at time listed.
 Day   Time   Solar   Ave.   Ave.  Ave.  Vector  Max.   Baro.   Total    
  of    of     Rad.   Air    Rel.  Wind   Wind   Wind  Press.  Precip.   
Year   Day            Temp.  Hum.  Speed  Dir.   Gust                    
2014   (PST)  Kw/m2    F      %     mph   deg.    mph    mb.     in.     
-------------------------------------------------------------------------
 355    1:00   0.00   25.9    93    1.1   243     3.7   856.3    0.00 
 355    1:10   0.00   25.4    92    3.2   208     4.7   856.1    0.00 
 355    1:20   0.00   25.3    93    2.9   190     4.4   855.8    0.00 
 355    1:30   0.00   24.9    93    4.1   250     5.9   855.8    0.00 
 355    1:40   0.00   25.3    93    2.8   260     3.9   855.9    0.00 
 355    1:50   0.00   25.4    93    0.8   322     4.2   855.9    0.00 
 355    2:00   0.00   25.1    93    1.4   324     2.3   856.1    0.00 
 355    2:10   0.00   24.4    92    1.5   325     2.8   856.1    0.00 
 355    2:20   0.00   24.1    92    2.6    50     5.6   856.2    0.00 
 355    2:30   0.00   23.7    93    2.3    90     4.8   856.0    0.00 
 355    2:40   0.00   23.6    93    0.4    93     1.3   856.1    0.00 
 355    2:50   0.00   23.0    93    0.3    95     1.3   856.4    0.00 
 355    3:00   0.00   23.2    93    1.7   144     3.3   856.5    0.00 
 355    3:10   0.00   23.4    93    1.6   229     3.5   856.3    0.00 
 355    3:20   0.00   23.4    93    0.1   210     0.9   856.2    0.00 
 355    3:30   0.00   23.6    93    0.4   210     2.6   856.1    0.00 
 355    3:40   0.00   23.7    93    1.3   210     3.0   855.9    0.00 
 355    3:50   0.00   24.1    93    2.5   210     3.8   855.7    0.00 
 355    4:00   0.00   24.0    93    3.2   214     5.1   855.5    0.00 
 355    4:10   0.00   24.7    94    3.4   232     5.1   855.3    0.00 
 355    4:20   0.00   25.1    93    1.6   243     4.2   855.4    0.00 
 355    4:30   0.00   25.1    93    1.1   243     2.9   855.6    0.00 
 355    4:40   0.00   24.6    93    2.1   243     2.9   855.4    0.00 
 355    4:50   0.00   24.3    93    1.1   243     2.1   855.3    0.00 
 355    5:00   0.00   24.9    93    2.6   252     4.5   855.4    0.00 
 355    5:10   0.00   25.6    94    1.4   291     3.3   855.6    0.00 
 355    5:20   0.00   25.9    93    0.3   290     1.3   855.5    0.00 
 355    5:30   0.00   26.5    94    1.4   298     3.1   855.5    0.00 
 355    5:40   0.00   26.0    92    1.0   294     2.9   855.5    0.00 
 355    5:50   0.00   25.2    92    0.7   304     2.3   855.5    0.00 
 355    6:00   0.00   24.2    92    2.2    76     5.9   855.7    0.00 
 355    6:10   0.00   23.4    92    0.5    82     3.3   855.6    0.00 
 355    6:20   0.00   23.3    93    0.5    87     1.8   855.7    0.00 
 355    6:30   0.00   23.3    93    1.0    85     2.1   855.7    0.00 
 355    6:40   0.00   22.3    92    1.0    87     1.7   855.7    0.00 
 355    6:50   0.00   22.5    93    0.6    58     1.8   855.7    0.00 
 355    7:00   0.00   22.4    93    0.9   339     3.4   855.9    0.00 
 355    7:10   0.00   22.7    93    1.3   278     2.4   855.9    0.00 
 355    7:20   0.00   23.1    93    0.4   278     1.7   856.0    0.00 
 355    7:30   0.00   23.2    92    2.6    84     5.2   856.0    0.00 
 355    7:40   0.00   23.4    93    0.8    84     2.8   855.9    0.00 
 355    7:50   0.00   23.9    93    1.0   303     3.6   855.8    0.00 
 355    8:00   0.00   24.8    93    3.1   315     5.0   855.9    0.00 
 355    8:10   0.00   25.1    92    3.1   334     4.6   855.8    0.00 
 355    8:20   0.00   26.1    92    3.0   300     5.4   856.0    0.00 
 355    8:30   0.00   27.4    92    2.6   318     4.5   856.0    0.00 
 355    8:40   0.00   28.2    92    3.4   272     5.6   856.0    0.00 
 355    8:50   0.00   29.4    92    1.5   279     3.5   856.1    0.00 
 355    9:00   0.00   30.5    90    0.7     9     3.3   856.4    0.00 
 355    9:10   0.01   30.6    89    2.5    53     3.9   856.6    0.00 
 355    9:20   0.01   30.2    89    2.4    73     4.1   856.5    0.00 
 355    9:30   0.02   30.7    89    2.2    98     3.5   856.6    0.00 
 355    9:40   0.02   31.6    88    1.2   121     2.5   856.5    0.00 
 355    9:50   0.02   32.6    88    0.4   109     2.5   856.4    0.00 
 355   10:00   0.03   33.2    86    0.4    12     3.1   856.4    0.00 
 355   10:10   0.14   34.2    86    0.5   318     2.0   856.5    0.00 
 355   10:20   0.13   35.7    83    0.3    13     1.2   856.5    0.00 
 355   10:30   0.19   36.2    81    1.1    32     3.0   856.6    0.00 
 355   10:40   0.20   36.2    82    1.8    83     3.2   856.4    0.00 
 355   10:50   0.29   37.0    80    0.4    59     2.5   856.2    0.00 
 355   11:00   0.34   37.7    78    0.4    48     2.1   856.0    0.00 
 355   11:10   0.20   38.4    76    0.5    53     2.2   855.7    0.00 
 355   11:20   0.06   38.7    75    0.4    36     2.7   855.5    0.00 
 355   11:30   0.07   39.9    74    0.3   359     1.7   855.3    0.00 
 355   11:40   0.12   40.8    73    0.7   331     2.8   855.1    0.00 
 355   11:50   0.31   41.1    73    2.1   345     3.9   854.8    0.00 
 355   12:00   0.40   41.5    71    3.9    21     6.6   854.8    0.00 
 355   12:10   0.41   42.5    68    3.3    37     5.6   854.7    0.00 
 355   12:20   0.35   43.2    66    1.5    22     4.1   854.8    0.00 
 355   12:30   0.36   44.1    64    1.7    26     4.2   854.7    0.00 
 355   12:40   0.17   45.0    63    3.8    60     6.5   854.4    0.00 
 355   12:50   0.07   45.9    62    4.4    68     6.9   854.2    0.00 
 355   13:00   0.18   46.6    61    2.4   104     5.7   854.0    0.00 
 355   13:10   0.28   48.3    59    1.7   130     3.4   853.8    0.00 
 355   13:20   0.36   50.2    55    1.9   153     4.5   853.5    0.00 
 355   13:30   0.17   50.0    56    3.5    85     6.4   853.7    0.00 
 355   13:40   0.14   50.4    55    1.2    34     2.9   853.7    0.00 
 355   13:50   0.14   50.8    55    1.1   305     3.3   853.6    0.00 
 355   14:00   0.16   51.2    54    0.2   301     0.9   853.5    0.00 
 355   14:10   0.21   52.0    54    0.1   251     1.2   853.4    0.00 
 355   14:20   0.20   52.7    52    1.7   213     3.7   853.1    0.00 
 355   14:30   0.15   52.8    52    0.8   236     2.4   853.2    0.00 
 355   14:40   0.09   52.4    54    1.6   276     2.8   853.2    0.00 
 355   14:50   0.11   52.4    54    1.0    13     3.3   853.4    0.00 
 355   15:00   0.09   51.6    56    3.0   337     4.3   853.6    0.00 
 355   15:10   0.09   51.0    57    2.8   340     4.1   853.6    0.00 
 355   15:20   0.09   50.3    60    3.3   329     4.4   853.7    0.00 
 355   15:30   0.07   49.5    61    2.9   333     3.9   853.7    0.00 
 355   15:40   0.07   48.2    64    3.7   303     4.7   853.6    0.00 
 355   15:50   0.05   47.7    66    1.5    34     3.7   853.7    0.00 
 355   16:00   0.03   47.9    63    3.6   100     5.9   853.7    0.00 
 355   16:10   0.02   45.7    70    4.6   124     5.9   853.8    0.00 
 355   16:20   0.01   44.0    71    4.9   138     6.0   853.9    0.00 
 355   16:30   0.00   44.0    71    4.6   145     5.8   854.0    0.00 
 355   16:40   0.00   43.1    73    5.0   186     6.1   853.9    0.00 
 355   16:50   0.00   41.2    77    5.4   229     5.8   854.1    0.00 
 355   17:00   0.00   40.4    79    6.0   230     7.3   854.1    0.00 
 355   17:10   0.00   40.6    79    6.9   216     9.0   854.2    0.00 
 355   17:20   0.00   40.1    80    6.8   223     7.9   854.4    0.00 
 355   17:30   0.00   40.6    81    6.4   219     8.4   854.5    0.00 
 355   17:40   0.00   42.2    77    5.4   217     7.7   854.3    0.00 
 355   17:50   0.00   41.9    77    3.9   230     6.4   854.6    0.00 
 355   18:00   0.00   44.6    71    4.9   227    10.8   854.6    0.00 
 355   18:10   0.00   46.8    66    6.2   244    10.4   854.4    0.00 
 355   18:20   0.00   45.7    67    7.2   231     8.6   854.5    0.00 
 355   18:30   0.00   45.0    69    8.2   232    10.2   854.5    0.00 
 355   18:40   0.00   44.7    69    7.7   231     9.7   854.4    0.00 
 355   18:50   0.00   43.7    71    6.5   234     8.3   854.5    0.00 
 355   19:00   0.00   42.1    74    6.5   225     8.3   854.6    0.00 
 355   19:10   0.00   42.4    75    6.6   215     8.3   854.8    0.00 
 355   19:20   0.00   44.5    69    6.4   240     9.3   854.9    0.00 
 355   19:30   0.00   45.4    66    4.2   268     9.0   855.0    0.00 
 355   19:40   0.00   44.7    68    4.0   267     5.7   855.1    0.00 
 355   19:50   0.00   45.8    65    4.4   267     6.9   855.3    0.00 
 355   20:00   0.00   46.1    64    4.7   252     5.8   855.4    0.00 
 355   20:10   0.00   47.8    61    3.2   257     4.7   855.5    0.00 
 355   20:20   0.00   46.8    62    5.5   209     6.7   855.6    0.00 
 355   20:30   0.00   45.9    64    6.2   212     8.0   855.7    0.00 
 355   20:40   0.00   44.3    68    9.0   217    12.0   855.6    0.00 
 355   20:50   0.00   45.3    66    7.0   234    12.1   855.4    0.00 
 355   21:00   0.00   46.2    64    5.4   253    10.4   855.4    0.00 
 355   21:10   0.00   45.2    65    8.2   253    12.0   855.4    0.00 
 355   21:20   0.00   44.4    67    7.8   266    10.0   855.3    0.00 
 355   21:30   0.00   42.7    71    7.0   261    10.3   855.2    0.00 
 355   21:40   0.00   43.0    70    8.8   256    10.7   855.1    0.00 
 355   21:50   0.00   41.9    72    6.5   273    10.5   855.4    0.00 
 355   22:00   0.00   41.5    74    6.3   270     9.6   855.4    0.00 
 355   22:10   0.00   43.1    71    7.5   268     9.8   855.5    0.00 
 355   22:20   0.00   42.1    73    7.5   267     9.6   855.7    0.00 
 355   22:30   0.00   42.7    72    7.5   263     9.2   855.7    0.00 
 355   22:40   0.00   43.9    70    7.8   265    10.2   855.7    0.00 
 355   22:50   0.00   44.3    68    8.0   265    12.2   855.7    0.00 
 355   23:00   0.00   43.1    70    5.3   294     7.2   855.9    0.00 
 355   23:10   0.00   42.8    71    5.8   284     7.6   855.7    0.00 
 355   23:20   0.00   43.5    70    6.2   280     7.7   855.7    0.00 
 355   23:30   0.00   44.1    70    7.2   273     9.4   855.8    0.00 
 355   23:40   0.00   43.8    70    7.4   268     8.7   855.8    0.00 
 355   23:50   0.00   42.5    72    7.6   260     9.4   855.8    0.00 
 356    0:00   0.00   42.6    72    7.9   252     9.7   855.6    0.00 
 356    0:10   0.00   43.5    71    7.2   252     9.3   855.5    0.00 
 356    0:20   0.00   42.4    72    7.3   256     9.5   855.5    0.00 
 356    0:30   0.00   41.8    74    7.9   261     9.6   855.6    0.00 
 356    0:40   0.00   41.3    75    7.7   262     9.5   855.7    0.00 
 356    0:50   0.00   40.8    76    6.7   258     8.3   855.8    0.00 

Return to Sand Spring Valley graphs page.


Western Regional Climate Center,wrcc@dri.edu